sensor_id;sensor_type;location;lat;lon;timestamp;P1;durP1;ratioP1;P2;durP2;ratioP2
36995;SDS011;22905;50.340;10.776;2024-02-26T00:02:24;14.68;;;7.30;;
36995;SDS011;22905;50.340;10.776;2024-02-26T00:07:24;13.15;;;6.82;;
36995;SDS011;22905;50.340;10.776;2024-02-26T00:12:24;13.20;;;8.10;;
36995;SDS011;22905;50.340;10.776;2024-02-26T00:17:25;10.82;;;6.65;;
36995;SDS011;22905;50.340;10.776;2024-02-26T00:22:25;10.55;;;6.65;;
36995;SDS011;22905;50.340;10.776;2024-02-26T00:27:25;12.00;;;6.83;;
36995;SDS011;22905;50.340;10.776;2024-02-26T00:32:25;11.88;;;7.10;;
36995;SDS011;22905;50.340;10.776;2024-02-26T00:37:26;13.63;;;6.63;;
36995;SDS011;22905;50.340;10.776;2024-02-26T00:42:26;10.95;;;6.10;;
36995;SDS011;22905;50.340;10.776;2024-02-26T00:47:26;11.70;;;7.28;;
36995;SDS011;22905;50.340;10.776;2024-02-26T00:52:27;13.20;;;7.03;;
36995;SDS011;22905;50.340;10.776;2024-02-26T00:57:27;25.15;;;7.78;;
36995;SDS011;22905;50.340;10.776;2024-02-26T01:02:27;15.30;;;8.15;;
36995;SDS011;22905;50.340;10.776;2024-02-26T01:07:28;15.70;;;8.18;;
36995;SDS011;22905;50.340;10.776;2024-02-26T01:12:28;14.30;;;7.23;;
36995;SDS011;22905;50.340;10.776;2024-02-26T01:17:29;21.45;;;8.73;;
36995;SDS011;22905;50.340;10.776;2024-02-26T01:22:29;14.57;;;7.28;;
36995;SDS011;22905;50.340;10.776;2024-02-26T01:27:30;13.77;;;7.45;;
36995;SDS011;22905;50.340;10.776;2024-02-26T01:32:30;13.82;;;6.40;;
36995;SDS011;22905;50.340;10.776;2024-02-26T01:37:30;12.93;;;7.13;;
36995;SDS011;22905;50.340;10.776;2024-02-26T01:42:31;12.30;;;6.50;;
36995;SDS011;22905;50.340;10.776;2024-02-26T01:47:32;10.40;;;5.22;;
36995;SDS011;22905;50.340;10.776;2024-02-26T01:52:32;13.05;;;6.72;;
36995;SDS011;22905;50.340;10.776;2024-02-26T01:57:33;10.23;;;6.03;;
36995;SDS011;22905;50.340;10.776;2024-02-26T02:02:33;11.43;;;5.80;;
36995;SDS011;22905;50.340;10.776;2024-02-26T02:07:35;11.88;;;5.65;;
36995;SDS011;22905;50.340;10.776;2024-02-26T02:12:35;11.32;;;5.13;;
36995;SDS011;22905;50.340;10.776;2024-02-26T02:17:38;10.23;;;5.45;;
36995;SDS011;22905;50.340;10.776;2024-02-26T02:22:38;6.87;;;4.30;;
36995;SDS011;22905;50.340;10.776;2024-02-26T02:27:39;12.17;;;5.30;;
36995;SDS011;22905;50.340;10.776;2024-02-26T02:32:40;8.13;;;5.18;;
36995;SDS011;22905;50.340;10.776;2024-02-26T02:37:43;10.35;;;5.78;;
36995;SDS011;22905;50.340;10.776;2024-02-26T02:42:43;9.23;;;4.57;;
36995;SDS011;22905;50.340;10.776;2024-02-26T02:47:44;6.57;;;4.22;;
36995;SDS011;22905;50.340;10.776;2024-02-26T02:52:44;14.23;;;5.23;;
36995;SDS011;22905;50.340;10.776;2024-02-26T02:57:46;8.17;;;4.20;;
36995;SDS011;22905;50.340;10.776;2024-02-26T03:02:46;8.98;;;4.68;;
36995;SDS011;22905;50.340;10.776;2024-02-26T03:07:47;10.48;;;4.55;;
36995;SDS011;22905;50.340;10.776;2024-02-26T03:12:47;9.10;;;5.07;;
36995;SDS011;22905;50.340;10.776;2024-02-26T03:17:47;10.50;;;4.57;;
36995;SDS011;22905;50.340;10.776;2024-02-26T03:22:47;9.43;;;5.80;;
36995;SDS011;22905;50.340;10.776;2024-02-26T03:27:48;12.40;;;5.07;;
36995;SDS011;22905;50.340;10.776;2024-02-26T03:32:48;8.48;;;4.90;;
36995;SDS011;22905;50.340;10.776;2024-02-26T03:37:48;10.23;;;4.88;;
36995;SDS011;22905;50.340;10.776;2024-02-26T03:47:53;9.67;;;5.40;;
36995;SDS011;22905;50.340;10.776;2024-02-26T03:52:54;14.75;;;5.80;;
36995;SDS011;22905;50.340;10.776;2024-02-26T03:57:54;10.83;;;5.50;;
36995;SDS011;22905;50.340;10.776;2024-02-26T04:02:54;10.38;;;5.30;;
36995;SDS011;22905;50.340;10.776;2024-02-26T04:07:55;8.88;;;5.35;;
36995;SDS011;22905;50.340;10.776;2024-02-26T04:12:55;13.82;;;5.72;;
36995;SDS011;22905;50.340;10.776;2024-02-26T04:17:55;14.02;;;5.80;;
36995;SDS011;22905;50.340;10.776;2024-02-26T04:22:56;8.88;;;4.82;;
36995;SDS011;22905;50.340;10.776;2024-02-26T04:27:56;12.33;;;5.70;;
36995;SDS011;22905;50.340;10.776;2024-02-26T04:32:56;13.55;;;5.07;;
36995;SDS011;22905;50.340;10.776;2024-02-26T04:37:57;14.13;;;5.87;;
36995;SDS011;22905;50.340;10.776;2024-02-26T04:42:57;11.23;;;6.07;;
36995;SDS011;22905;50.340;10.776;2024-02-26T04:47:59;9.43;;;5.93;;
36995;SDS011;22905;50.340;10.776;2024-02-26T04:52:59;9.25;;;5.82;;
36995;SDS011;22905;50.340;10.776;2024-02-26T04:57:59;10.18;;;6.50;;
36995;SDS011;22905;50.340;10.776;2024-02-26T05:03:00;8.82;;;5.90;;
36995;SDS011;22905;50.340;10.776;2024-02-26T05:08:00;13.40;;;6.43;;
36995;SDS011;22905;50.340;10.776;2024-02-26T05:13:01;15.02;;;7.30;;
36995;SDS011;22905;50.340;10.776;2024-02-26T05:18:02;15.00;;;7.97;;
36995;SDS011;22905;50.340;10.776;2024-02-26T05:23:03;15.13;;;8.10;;
36995;SDS011;22905;50.340;10.776;2024-02-26T05:28:03;17.88;;;7.82;;
36995;SDS011;22905;50.340;10.776;2024-02-26T05:33:04;12.43;;;7.63;;
36995;SDS011;22905;50.340;10.776;2024-02-26T05:38:04;15.70;;;8.07;;
36995;SDS011;22905;50.340;10.776;2024-02-26T05:43:04;20.33;;;8.87;;
36995;SDS011;22905;50.340;10.776;2024-02-26T05:48:05;27.90;;;11.63;;
36995;SDS011;22905;50.340;10.776;2024-02-26T05:53:05;27.88;;;9.43;;
36995;SDS011;22905;50.340;10.776;2024-02-26T05:58:06;26.38;;;9.98;;
36995;SDS011;22905;50.340;10.776;2024-02-26T06:03:06;18.65;;;9.20;;
36995;SDS011;22905;50.340;10.776;2024-02-26T06:08:06;15.00;;;8.02;;
36995;SDS011;22905;50.340;10.776;2024-02-26T06:13:07;15.85;;;7.57;;
36995;SDS011;22905;50.340;10.776;2024-02-26T06:18:07;18.33;;;8.48;;
36995;SDS011;22905;50.340;10.776;2024-02-26T06:23:08;25.23;;;7.35;;
36995;SDS011;22905;50.340;10.776;2024-02-26T06:28:10;13.48;;;7.60;;
36995;SDS011;22905;50.340;10.776;2024-02-26T06:33:10;12.80;;;7.35;;
36995;SDS011;22905;50.340;10.776;2024-02-26T06:38:10;18.95;;;9.15;;
36995;SDS011;22905;50.340;10.776;2024-02-26T06:43:12;34.70;;;15.20;;
36995;SDS011;22905;50.340;10.776;2024-02-26T06:48:13;32.95;;;12.95;;
36995;SDS011;22905;50.340;10.776;2024-02-26T06:53:13;23.77;;;12.43;;
36995;SDS011;22905;50.340;10.776;2024-02-26T06:58:13;17.33;;;8.27;;
36995;SDS011;22905;50.340;10.776;2024-02-26T07:03:14;19.35;;;8.48;;
36995;SDS011;22905;50.340;10.776;2024-02-26T07:08:15;18.33;;;8.80;;
36995;SDS011;22905;50.340;10.776;2024-02-26T07:13:15;16.97;;;8.97;;
36995;SDS011;22905;50.340;10.776;2024-02-26T07:18:15;35.90;;;14.80;;
36995;SDS011;22905;50.340;10.776;2024-02-26T07:23:16;38.28;;;14.68;;
36995;SDS011;22905;50.340;10.776;2024-02-26T07:28:16;38.08;;;12.50;;
36995;SDS011;22905;50.340;10.776;2024-02-26T07:33:16;29.13;;;10.45;;
36995;SDS011;22905;50.340;10.776;2024-02-26T07:38:16;17.93;;;9.97;;
36995;SDS011;22905;50.340;10.776;2024-02-26T07:43:17;24.97;;;11.30;;
36995;SDS011;22905;50.340;10.776;2024-02-26T07:48:17;25.03;;;11.50;;
36995;SDS011;22905;50.340;10.776;2024-02-26T07:53:17;23.48;;;11.25;;
36995;SDS011;22905;50.340;10.776;2024-02-26T07:58:18;27.92;;;12.75;;
36995;SDS011;22905;50.340;10.776;2024-02-26T08:03:18;19.58;;;11.52;;
36995;SDS011;22905;50.340;10.776;2024-02-26T08:08:18;22.92;;;12.48;;
36995;SDS011;22905;50.340;10.776;2024-02-26T08:13:19;26.90;;;12.25;;
36995;SDS011;22905;50.340;10.776;2024-02-26T08:18:19;23.58;;;12.23;;
36995;SDS011;22905;50.340;10.776;2024-02-26T08:23:20;19.17;;;10.82;;
36995;SDS011;22905;50.340;10.776;2024-02-26T08:28:20;24.30;;;13.47;;
36995;SDS011;22905;50.340;10.776;2024-02-26T08:33:20;25.88;;;13.15;;
36995;SDS011;22905;50.340;10.776;2024-02-26T08:38:21;20.52;;;10.15;;
36995;SDS011;22905;50.340;10.776;2024-02-26T08:43:21;17.27;;;9.82;;
36995;SDS011;22905;50.340;10.776;2024-02-26T08:48:21;23.42;;;8.85;;
36995;SDS011;22905;50.340;10.776;2024-02-26T08:53:22;21.70;;;10.13;;
36995;SDS011;22905;50.340;10.776;2024-02-26T08:58:22;19.10;;;10.35;;
36995;SDS011;22905;50.340;10.776;2024-02-26T09:03:22;19.17;;;8.53;;
36995;SDS011;22905;50.340;10.776;2024-02-26T09:08:23;13.03;;;7.30;;
36995;SDS011;22905;50.340;10.776;2024-02-26T09:13:23;17.17;;;9.00;;
36995;SDS011;22905;50.340;10.776;2024-02-26T09:18:23;12.83;;;7.87;;
36995;SDS011;22905;50.340;10.776;2024-02-26T09:23:24;11.90;;;7.85;;
36995;SDS011;22905;50.340;10.776;2024-02-26T09:28:24;14.57;;;8.25;;
36995;SDS011;22905;50.340;10.776;2024-02-26T09:33:25;15.40;;;7.57;;
36995;SDS011;22905;50.340;10.776;2024-02-26T09:38:25;13.63;;;7.73;;
36995;SDS011;22905;50.340;10.776;2024-02-26T09:43:25;19.45;;;7.90;;
36995;SDS011;22905;50.340;10.776;2024-02-26T09:48:34;17.95;;;7.10;;
36995;SDS011;22905;50.340;10.776;2024-02-26T09:53:35;10.20;;;6.65;;
36995;SDS011;22905;50.340;10.776;2024-02-26T09:58:39;13.07;;;7.55;;
36995;SDS011;22905;50.340;10.776;2024-02-26T10:03:41;11.68;;;7.43;;
36995;SDS011;22905;50.340;10.776;2024-02-26T10:08:44;11.52;;;6.63;;
36995;SDS011;22905;50.340;10.776;2024-02-26T10:13:45;13.77;;;7.22;;
36995;SDS011;22905;50.340;10.776;2024-02-26T10:23:46;14.23;;;7.18;;
36995;SDS011;22905;50.340;10.776;2024-02-26T10:28:50;12.35;;;7.20;;
36995;SDS011;22905;50.340;10.776;2024-02-26T10:33:51;11.38;;;6.50;;
36995;SDS011;22905;50.340;10.776;2024-02-26T10:38:55;10.60;;;6.35;;
36995;SDS011;22905;50.340;10.776;2024-02-26T10:43:55;9.83;;;6.40;;
36995;SDS011;22905;50.340;10.776;2024-02-26T10:48:56;12.05;;;7.22;;
36995;SDS011;22905;50.340;10.776;2024-02-26T10:53:57;13.18;;;6.70;;
36995;SDS011;22905;50.340;10.776;2024-02-26T10:58:59;10.52;;;6.32;;
36995;SDS011;22905;50.340;10.776;2024-02-26T11:04:00;16.67;;;9.65;;
36995;SDS011;22905;50.340;10.776;2024-02-26T11:09:02;28.75;;;17.50;;
36995;SDS011;22905;50.340;10.776;2024-02-26T11:14:03;29.15;;;17.02;;
36995;SDS011;22905;50.340;10.776;2024-02-26T11:19:03;46.17;;;27.55;;
36995;SDS011;22905;50.340;10.776;2024-02-26T11:24:14;12.45;;;7.82;;
36995;SDS011;22905;50.340;10.776;2024-02-26T11:29:16;13.00;;;7.15;;
36995;SDS011;22905;50.340;10.776;2024-02-26T11:34:19;12.13;;;7.47;;
36995;SDS011;22905;50.340;10.776;2024-02-26T11:39:19;13.85;;;7.13;;
36995;SDS011;22905;50.340;10.776;2024-02-26T11:44:29;14.50;;;6.30;;
36995;SDS011;22905;50.340;10.776;2024-02-26T11:49:30;8.95;;;5.72;;
36995;SDS011;22905;50.340;10.776;2024-02-26T12:05:21;7.13;;;4.68;;
36995;SDS011;22905;50.340;10.776;2024-02-26T12:10:27;8.43;;;5.65;;
36995;SDS011;22905;50.340;10.776;2024-02-26T12:15:32;9.15;;;5.22;;
36995;SDS011;22905;50.340;10.776;2024-02-26T12:20:39;7.32;;;4.80;;
36995;SDS011;22905;50.340;10.776;2024-02-26T12:25:39;7.37;;;4.70;;
36995;SDS011;22905;50.340;10.776;2024-02-26T12:30:39;8.88;;;5.53;;
36995;SDS011;22905;50.340;10.776;2024-02-26T12:35:40;12.82;;;5.75;;
36995;SDS011;22905;50.340;10.776;2024-02-26T12:40:40;7.93;;;4.68;;
36995;SDS011;22905;50.340;10.776;2024-02-26T12:45:41;7.80;;;4.85;;
36995;SDS011;22905;50.340;10.776;2024-02-26T12:50:44;6.68;;;4.20;;
36995;SDS011;22905;50.340;10.776;2024-02-26T12:55:45;8.07;;;4.38;;
36995;SDS011;22905;50.340;10.776;2024-02-26T13:00:45;10.38;;;5.97;;
36995;SDS011;22905;50.340;10.776;2024-02-26T13:05:47;9.80;;;5.78;;
36995;SDS011;22905;50.340;10.776;2024-02-26T13:10:48;7.90;;;4.95;;
36995;SDS011;22905;50.340;10.776;2024-02-26T13:15:48;7.70;;;4.90;;
36995;SDS011;22905;50.340;10.776;2024-02-26T13:20:49;8.98;;;5.65;;
36995;SDS011;22905;50.340;10.776;2024-02-26T13:25:49;12.13;;;6.25;;
36995;SDS011;22905;50.340;10.776;2024-02-26T13:30:56;11.85;;;6.38;;
36995;SDS011;22905;50.340;10.776;2024-02-26T13:35:58;11.00;;;6.18;;
36995;SDS011;22905;50.340;10.776;2024-02-26T13:40:58;10.48;;;4.68;;
36995;SDS011;22905;50.340;10.776;2024-02-26T13:46:00;12.48;;;4.65;;
36995;SDS011;22905;50.340;10.776;2024-02-26T13:51:00;8.23;;;4.45;;
36995;SDS011;22905;50.340;10.776;2024-02-26T13:56:01;8.23;;;4.75;;
36995;SDS011;22905;50.340;10.776;2024-02-26T14:01:02;6.63;;;4.63;;
36995;SDS011;22905;50.340;10.776;2024-02-26T14:06:03;9.10;;;5.55;;
36995;SDS011;22905;50.340;10.776;2024-02-26T14:11:04;9.43;;;5.18;;
36995;SDS011;22905;50.340;10.776;2024-02-26T14:16:04;9.15;;;5.00;;
36995;SDS011;22905;50.340;10.776;2024-02-26T14:21:05;11.25;;;4.80;;
36995;SDS011;22905;50.340;10.776;2024-02-26T14:26:05;7.28;;;4.28;;
36995;SDS011;22905;50.340;10.776;2024-02-26T14:31:06;9.02;;;4.93;;
36995;SDS011;22905;50.340;10.776;2024-02-26T14:36:09;8.25;;;4.57;;
36995;SDS011;22905;50.340;10.776;2024-02-26T14:41:09;23.87;;;15.40;;
36995;SDS011;22905;50.340;10.776;2024-02-26T14:46:10;11.63;;;4.32;;
36995;SDS011;22905;50.340;10.776;2024-02-26T14:51:10;7.40;;;4.03;;
36995;SDS011;22905;50.340;10.776;2024-02-26T14:56:11;6.80;;;4.40;;
36995;SDS011;22905;50.340;10.776;2024-02-26T15:01:11;17.65;;;11.15;;
36995;SDS011;22905;50.340;10.776;2024-02-26T15:06:11;9.68;;;6.80;;
36995;SDS011;22905;50.340;10.776;2024-02-26T15:11:12;8.00;;;5.20;;
36995;SDS011;22905;50.340;10.776;2024-02-26T15:16:18;8.82;;;5.50;;
36995;SDS011;22905;50.340;10.776;2024-02-26T15:21:20;6.43;;;4.63;;
36995;SDS011;22905;50.340;10.776;2024-02-26T15:26:20;9.70;;;6.18;;
36995;SDS011;22905;50.340;10.776;2024-02-26T15:31:22;20.70;;;10.88;;
36995;SDS011;22905;50.340;10.776;2024-02-26T15:36:22;13.15;;;8.48;;
36995;SDS011;22905;50.340;10.776;2024-02-26T15:41:22;24.73;;;9.70;;
36995;SDS011;22905;50.340;10.776;2024-02-26T15:46:23;13.82;;;7.40;;
36995;SDS011;22905;50.340;10.776;2024-02-26T15:51:23;12.38;;;7.55;;
36995;SDS011;22905;50.340;10.776;2024-02-26T15:56:26;11.77;;;6.85;;
36995;SDS011;22905;50.340;10.776;2024-02-26T16:01:27;12.48;;;6.63;;
36995;SDS011;22905;50.340;10.776;2024-02-26T16:06:36;14.67;;;6.30;;
36995;SDS011;22905;50.340;10.776;2024-02-26T16:11:41;12.32;;;6.70;;
36995;SDS011;22905;50.340;10.776;2024-02-26T16:16:44;10.00;;;6.63;;
36995;SDS011;22905;50.340;10.776;2024-02-26T16:21:50;12.50;;;7.00;;
36995;SDS011;22905;50.340;10.776;2024-02-26T16:26:50;14.68;;;8.23;;
36995;SDS011;22905;50.340;10.776;2024-02-26T16:31:51;13.93;;;7.20;;
36995;SDS011;22905;50.340;10.776;2024-02-26T16:36:51;14.52;;;8.10;;
36995;SDS011;22905;50.340;10.776;2024-02-26T16:41:51;14.20;;;7.82;;
36995;SDS011;22905;50.340;10.776;2024-02-26T16:46:52;20.05;;;10.32;;
36995;SDS011;22905;50.340;10.776;2024-02-26T16:51:52;22.58;;;12.15;;
36995;SDS011;22905;50.340;10.776;2024-02-26T16:56:52;27.45;;;13.48;;
36995;SDS011;22905;50.340;10.776;2024-02-26T17:01:53;22.10;;;11.77;;
36995;SDS011;22905;50.340;10.776;2024-02-26T17:06:54;28.52;;;14.65;;
36995;SDS011;22905;50.340;10.776;2024-02-26T17:11:54;18.05;;;10.15;;
36995;SDS011;22905;50.340;10.776;2024-02-26T17:16:54;14.47;;;8.60;;
36995;SDS011;22905;50.340;10.776;2024-02-26T17:21:55;16.75;;;9.20;;
36995;SDS011;22905;50.340;10.776;2024-02-26T17:26:55;15.40;;;9.10;;
36995;SDS011;22905;50.340;10.776;2024-02-26T17:31:55;21.73;;;10.40;;
36995;SDS011;22905;50.340;10.776;2024-02-26T17:36:56;16.55;;;10.18;;
36995;SDS011;22905;50.340;10.776;2024-02-26T17:41:56;20.27;;;10.30;;
36995;SDS011;22905;50.340;10.776;2024-02-26T17:46:57;18.67;;;10.60;;
36995;SDS011;22905;50.340;10.776;2024-02-26T17:51:57;19.67;;;11.48;;
36995;SDS011;22905;50.340;10.776;2024-02-26T17:56:57;19.67;;;11.03;;
36995;SDS011;22905;50.340;10.776;2024-02-26T18:01:58;23.55;;;11.75;;
36995;SDS011;22905;50.340;10.776;2024-02-26T18:06:59;20.77;;;10.18;;
36995;SDS011;22905;50.340;10.776;2024-02-26T18:12:00;20.20;;;10.18;;
36995;SDS011;22905;50.340;10.776;2024-02-26T18:17:00;22.13;;;10.93;;
36995;SDS011;22905;50.340;10.776;2024-02-26T18:22:01;17.83;;;10.18;;
36995;SDS011;22905;50.340;10.776;2024-02-26T18:27:01;18.50;;;11.10;;
36995;SDS011;22905;50.340;10.776;2024-02-26T18:32:02;27.40;;;13.77;;
36995;SDS011;22905;50.340;10.776;2024-02-26T18:37:02;21.67;;;13.02;;
36995;SDS011;22905;50.340;10.776;2024-02-26T18:42:02;22.52;;;12.80;;
36995;SDS011;22905;50.340;10.776;2024-02-26T18:47:05;25.92;;;13.88;;
36995;SDS011;22905;50.340;10.776;2024-02-26T18:52:05;27.05;;;14.48;;
36995;SDS011;22905;50.340;10.776;2024-02-26T18:57:06;32.53;;;16.27;;
36995;SDS011;22905;50.340;10.776;2024-02-26T19:02:06;39.28;;;18.42;;
36995;SDS011;22905;50.340;10.776;2024-02-26T19:07:07;38.50;;;20.90;;
36995;SDS011;22905;50.340;10.776;2024-02-26T19:12:07;34.83;;;19.75;;
36995;SDS011;22905;50.340;10.776;2024-02-26T19:17:08;37.83;;;20.65;;
36995;SDS011;22905;50.340;10.776;2024-02-26T19:22:09;34.03;;;19.38;;
36995;SDS011;22905;50.340;10.776;2024-02-26T19:27:10;38.00;;;20.17;;
36995;SDS011;22905;50.340;10.776;2024-02-26T19:32:11;40.78;;;22.38;;
36995;SDS011;22905;50.340;10.776;2024-02-26T19:37:11;45.13;;;22.33;;
36995;SDS011;22905;50.340;10.776;2024-02-26T19:42:11;40.08;;;20.83;;
36995;SDS011;22905;50.340;10.776;2024-02-26T19:47:12;41.10;;;20.88;;
36995;SDS011;22905;50.340;10.776;2024-02-26T19:52:13;38.93;;;22.80;;
36995;SDS011;22905;50.340;10.776;2024-02-26T19:57:13;40.08;;;20.25;;
36995;SDS011;22905;50.340;10.776;2024-02-26T20:02:14;42.00;;;21.10;;
36995;SDS011;22905;50.340;10.776;2024-02-26T20:07:14;39.78;;;20.45;;
36995;SDS011;22905;50.340;10.776;2024-02-26T20:12:16;38.57;;;22.57;;
36995;SDS011;22905;50.340;10.776;2024-02-26T20:17:16;39.90;;;22.30;;
36995;SDS011;22905;50.340;10.776;2024-02-26T20:22:19;42.15;;;22.63;;
36995;SDS011;22905;50.340;10.776;2024-02-26T20:27:19;40.30;;;23.00;;
36995;SDS011;22905;50.340;10.776;2024-02-26T20:32:19;45.17;;;23.57;;
36995;SDS011;22905;50.340;10.776;2024-02-26T20:37:21;50.13;;;24.60;;
36995;SDS011;22905;50.340;10.776;2024-02-26T20:42:22;44.17;;;23.88;;
36995;SDS011;22905;50.340;10.776;2024-02-26T20:47:23;39.22;;;22.42;;
36995;SDS011;22905;50.340;10.776;2024-02-26T20:52:23;40.30;;;22.40;;
36995;SDS011;22905;50.340;10.776;2024-02-26T20:57:24;49.88;;;25.40;;
36995;SDS011;22905;50.340;10.776;2024-02-26T21:02:24;45.10;;;24.80;;
36995;SDS011;22905;50.340;10.776;2024-02-26T21:07:25;41.78;;;22.17;;
36995;SDS011;22905;50.340;10.776;2024-02-26T21:12:25;44.95;;;23.90;;
36995;SDS011;22905;50.340;10.776;2024-02-26T21:17:26;40.70;;;22.33;;
36995;SDS011;22905;50.340;10.776;2024-02-26T21:22:27;44.47;;;24.02;;
36995;SDS011;22905;50.340;10.776;2024-02-26T21:27:27;43.53;;;24.33;;
36995;SDS011;22905;50.340;10.776;2024-02-26T21:32:28;47.85;;;23.77;;
36995;SDS011;22905;50.340;10.776;2024-02-26T21:37:28;40.70;;;24.03;;
36995;SDS011;22905;50.340;10.776;2024-02-26T21:42:29;39.05;;;22.70;;
36995;SDS011;22905;50.340;10.776;2024-02-26T21:47:29;44.35;;;22.90;;
36995;SDS011;22905;50.340;10.776;2024-02-26T21:52:30;44.97;;;21.70;;
36995;SDS011;22905;50.340;10.776;2024-02-26T21:57:31;38.17;;;20.23;;
36995;SDS011;22905;50.340;10.776;2024-02-26T22:02:31;35.93;;;20.27;;
36995;SDS011;22905;50.340;10.776;2024-02-26T22:07:31;32.83;;;19.43;;
36995;SDS011;22905;50.340;10.776;2024-02-26T22:12:32;35.15;;;18.73;;
36995;SDS011;22905;50.340;10.776;2024-02-26T22:17:34;35.22;;;17.38;;
36995;SDS011;22905;50.340;10.776;2024-02-26T22:22:36;31.75;;;18.10;;
36995;SDS011;22905;50.340;10.776;2024-02-26T22:27:39;30.70;;;17.85;;
36995;SDS011;22905;50.340;10.776;2024-02-26T22:32:39;33.67;;;18.15;;
36995;SDS011;22905;50.340;10.776;2024-02-26T22:37:39;26.85;;;16.55;;
36995;SDS011;22905;50.340;10.776;2024-02-26T22:42:40;31.48;;;17.13;;
36995;SDS011;22905;50.340;10.776;2024-02-26T22:47:40;24.27;;;15.07;;
36995;SDS011;22905;50.340;10.776;2024-02-26T22:52:40;25.20;;;15.53;;
36995;SDS011;22905;50.340;10.776;2024-02-26T22:57:41;30.17;;;16.20;;
36995;SDS011;22905;50.340;10.776;2024-02-26T23:02:41;27.38;;;15.35;;
36995;SDS011;22905;50.340;10.776;2024-02-26T23:07:42;30.00;;;15.68;;
36995;SDS011;22905;50.340;10.776;2024-02-26T23:12:42;30.52;;;17.13;;
36995;SDS011;22905;50.340;10.776;2024-02-26T23:17:42;31.17;;;15.70;;
36995;SDS011;22905;50.340;10.776;2024-02-26T23:22:44;29.42;;;16.50;;
36995;SDS011;22905;50.340;10.776;2024-02-26T23:27:46;31.80;;;17.10;;
36995;SDS011;22905;50.340;10.776;2024-02-26T23:32:47;35.30;;;18.03;;
36995;SDS011;22905;50.340;10.776;2024-02-26T23:37:47;31.92;;;16.13;;
36995;SDS011;22905;50.340;10.776;2024-02-26T23:42:47;26.70;;;15.70;;
36995;SDS011;22905;50.340;10.776;2024-02-26T23:47:48;30.50;;;17.58;;
36995;SDS011;22905;50.340;10.776;2024-02-26T23:52:48;35.65;;;18.10;;
36995;SDS011;22905;50.340;10.776;2024-02-26T23:57:49;35.85;;;18.42;;
